sensor_id;sensor_type;location;lat;lon;timestamp;pressure;altitude;pressure_sealevel;temperature;humidity
76611;BME280;65503;48.534;9.062;2023-02-28T00:01:02;97491.31;;;0.21;50.95
76611;BME280;65503;48.534;9.062;2023-02-28T00:03:29;97493.38;;;0.17;51.47
76611;BME280;65503;48.534;9.062;2023-02-28T00:05:55;97505.59;;;0.07;51.35
76611;BME280;65503;48.534;9.062;2023-02-28T00:08:22;97491.81;;;-0.02;51.41
76611;BME280;65503;48.534;9.062;2023-02-28T00:10:48;97492.88;;;0.14;51.40
76611;BME280;65503;48.534;9.062;2023-02-28T00:13:15;97501.59;;;0.13;51.16
76611;BME280;65503;48.534;9.062;2023-02-28T00:15:41;97495.81;;;0.19;51.14
76611;BME280;65503;48.534;9.062;2023-02-28T00:18:08;97501.06;;;0.27;51.00
76611;BME280;65503;48.534;9.062;2023-02-28T00:20:34;97495.41;;;0.06;51.61
76611;BME280;65503;48.534;9.062;2023-02-28T00:23:00;97499.97;;;0.12;51.71
76611;BME280;65503;48.534;9.062;2023-02-28T00:25:27;97488.25;;;-0.01;52.05
76611;BME280;65503;48.534;9.062;2023-02-28T00:27:53;97487.50;;;-0.11;51.73
76611;BME280;65503;48.534;9.062;2023-02-28T00:30:22;97498.97;;;0.05;51.96
76611;BME280;65503;48.534;9.062;2023-02-28T00:32:49;97488.97;;;0.10;51.40
76611;BME280;65503;48.534;9.062;2023-02-28T00:35:16;97494.50;;;0.15;51.90
76611;BME280;65503;48.534;9.062;2023-02-28T00:37:43;97486.31;;;0.02;51.55
76611;BME280;65503;48.534;9.062;2023-02-28T00:40:10;97489.97;;;-0.09;52.00
76611;BME280;65503;48.534;9.062;2023-02-28T00:42:39;97486.31;;;0.02;52.01
76611;BME280;65503;48.534;9.062;2023-02-28T00:45:06;97493.44;;;-0.01;52.02
76611;BME280;65503;48.534;9.062;2023-02-28T00:47:34;97490.59;;;0.11;52.16
76611;BME280;65503;48.534;9.062;2023-02-28T00:50:01;97487.56;;;0.15;51.43
76611;BME280;65503;48.534;9.062;2023-02-28T00:52:28;97491.59;;;0.18;51.68
76611;BME280;65503;48.534;9.062;2023-02-28T00:54:55;97490.00;;;0.17;51.74
76611;BME280;65503;48.534;9.062;2023-02-28T00:57:22;97485.81;;;0.24;51.42
76611;BME280;65503;48.534;9.062;2023-02-28T00:59:48;97490.78;;;0.17;51.63
76611;BME280;65503;48.534;9.062;2023-02-28T01:02:15;97490.59;;;0.11;51.89
76611;BME280;65503;48.534;9.062;2023-02-28T01:04:42;97484.19;;;-0.03;52.21
76611;BME280;65503;48.534;9.062;2023-02-28T01:07:08;97484.50;;;-0.06;52.75
76611;BME280;65503;48.534;9.062;2023-02-28T01:09:35;97485.44;;;0.11;52.55
76611;BME280;65503;48.534;9.062;2023-02-28T01:12:02;97481.75;;;-0.05;52.53
76611;BME280;65503;48.534;9.062;2023-02-28T01:14:28;97491.09;;;-0.12;52.51
76611;BME280;65503;48.534;9.062;2023-02-28T01:16:55;97480.13;;;-0.06;53.21
76611;BME280;65503;48.534;9.062;2023-02-28T01:19:21;97475.16;;;0.01;52.68
76611;BME280;65503;48.534;9.062;2023-02-28T01:21:48;97480.13;;;-0.06;52.93
76611;BME280;65503;48.534;9.062;2023-02-28T01:24:14;97487.94;;;0.03;52.55
76611;BME280;65503;48.534;9.062;2023-02-28T01:26:41;97488.97;;;0.10;52.53
76611;BME280;65503;48.534;9.062;2023-02-28T01:29:08;97478.50;;;-0.07;52.72
76611;BME280;65503;48.534;9.062;2023-02-28T01:31:34;97484.69;;;0.00;52.90
76611;BME280;65503;48.534;9.062;2023-02-28T01:34:02;97480.19;;;0.03;52.83
76611;BME280;65503;48.534;9.062;2023-02-28T01:36:29;97483.00;;;-0.09;53.07
76611;BME280;65503;48.534;9.062;2023-02-28T01:38:55;97474.22;;;-0.16;53.59
76611;BME280;65503;48.534;9.062;2023-02-28T01:41:26;97477.97;;;-0.10;53.19
76611;BME280;65503;48.534;9.062;2023-02-28T01:43:59;97463.00;;;-0.07;52.75
76611;BME280;65503;48.534;9.062;2023-02-28T01:46:34;97461.91;;;-0.22;53.24
76611;BME280;65503;48.534;9.062;2023-02-28T01:49:06;97463.47;;;-0.29;54.15
76611;BME280;65503;48.534;9.062;2023-02-28T01:51:38;97470.09;;;-0.09;53.91
76611;BME280;65503;48.534;9.062;2023-02-28T01:54:09;97456.56;;;-0.20;53.79
76611;BME280;65503;48.534;9.062;2023-02-28T01:56:44;97456.56;;;-0.20;54.29
76611;BME280;65503;48.534;9.062;2023-02-28T01:59:15;97457.75;;;-0.15;54.37
76611;BME280;65503;48.534;9.062;2023-02-28T02:01:44;97459.13;;;-0.46;54.25
76611;BME280;65503;48.534;9.062;2023-02-28T02:04:10;97451.50;;;-0.30;54.55
76611;BME280;65503;48.534;9.062;2023-02-28T02:06:40;97445.44;;;-0.21;54.21
76611;BME280;65503;48.534;9.062;2023-02-28T02:09:08;97443.78;;;-0.22;54.82
76611;BME280;65503;48.534;9.062;2023-02-28T02:11:35;97446.28;;;0.06;53.90
76611;BME280;65503;48.534;9.062;2023-02-28T02:14:36;97446.94;;;-0.10;54.26
76611;BME280;65503;48.534;9.062;2023-02-28T02:17:20;97444.03;;;-0.33;54.77
76611;BME280;65503;48.534;9.062;2023-02-28T02:31:17;97430.94;;;-0.14;54.90
76611;BME280;65503;48.534;9.062;2023-02-28T02:40:00;97436.00;;;-0.30;55.39
76611;BME280;65503;48.534;9.062;2023-02-28T02:42:41;97428.25;;;-0.30;56.05
76611;BME280;65503;48.534;9.062;2023-02-28T02:45:17;97429.91;;;-0.21;55.80
76611;BME280;65503;48.534;9.062;2023-02-28T02:47:45;97433.41;;;-0.30;55.67
76611;BME280;65503;48.534;9.062;2023-02-28T02:50:20;97434.97;;;-0.37;56.17
76611;BME280;65503;48.534;9.062;2023-02-28T02:52:53;97440.56;;;-0.24;55.55
76611;BME280;65503;48.534;9.062;2023-02-28T02:55:22;97439.81;;;-0.34;55.99
76611;BME280;65503;48.534;9.062;2023-02-28T02:57:57;97436.03;;;-0.22;55.79
76611;BME280;65503;48.534;9.062;2023-02-28T03:00:33;97439.06;;;-0.09;55.37
76611;BME280;65503;48.534;9.062;2023-02-28T03:03:01;97449.03;;;-0.14;55.67
76611;BME280;65503;48.534;9.062;2023-02-28T03:05:34;97447.47;;;-0.07;55.33
76611;BME280;65503;48.534;9.062;2023-02-28T03:08:05;97444.94;;;0.02;54.89
76611;BME280;65503;48.534;9.062;2023-02-28T03:10:40;97448.91;;;0.14;55.00
76611;BME280;65503;48.534;9.062;2023-02-28T03:19:43;97435.94;;;0.06;55.64
76611;BME280;65503;48.534;9.062;2023-02-28T03:30:25;97424.34;;;0.18;55.55
76611;BME280;65503;48.534;9.062;2023-02-28T03:33:22;97432.47;;;0.23;54.97
76611;BME280;65503;48.534;9.062;2023-02-28T03:35:55;97434.81;;;0.34;55.37
76611;BME280;65503;48.534;9.062;2023-02-28T03:38:33;97428.19;;;0.14;55.52
76611;BME280;65503;48.534;9.062;2023-02-28T03:41:06;97429.31;;;0.37;55.21
76611;BME280;65503;48.534;9.062;2023-02-28T03:43:39;97418.56;;;0.24;55.45
76611;BME280;65503;48.534;9.062;2023-02-28T03:46:10;97430.50;;;0.17;55.57
76611;BME280;65503;48.534;9.062;2023-02-28T03:51:35;97436.09;;;0.38;55.24
76611;BME280;65503;48.534;9.062;2023-02-28T03:54:06;97438.97;;;0.27;55.51
76611;BME280;65503;48.534;9.062;2023-02-28T03:56:40;97444.66;;;0.05;56.33
76611;BME280;65503;48.534;9.062;2023-02-28T04:01:44;97444.28;;;0.51;55.09
76611;BME280;65503;48.534;9.062;2023-02-28T04:04:12;97449.59;;;0.50;55.59
76611;BME280;65503;48.534;9.062;2023-02-28T04:06:40;97449.34;;;0.69;55.29
76611;BME280;65503;48.534;9.062;2023-02-28T04:09:08;97438.56;;;0.81;54.63
76611;BME280;65503;48.534;9.062;2023-02-28T04:11:38;97440.47;;;0.71;54.94
76611;BME280;65503;48.534;9.062;2023-02-28T04:14:07;97442.03;;;0.64;55.42
76611;BME280;65503;48.534;9.062;2023-02-28T04:16:39;97439.59;;;0.63;55.26
76611;BME280;65503;48.534;9.062;2023-02-28T04:19:07;97438.78;;;0.54;55.76
76611;BME280;65503;48.534;9.062;2023-02-28T04:21:37;97433.25;;;0.49;55.70
76611;BME280;65503;48.534;9.062;2023-02-28T04:24:06;97429.91;;;0.31;56.45
76611;BME280;65503;48.534;9.062;2023-02-28T04:26:35;97437.81;;;0.29;56.51
76611;BME280;65503;48.534;9.062;2023-02-28T04:29:05;97440.41;;;0.63;55.99
76611;BME280;65503;48.534;9.062;2023-02-28T04:31:33;97437.19;;;0.61;55.82
76611;BME280;65503;48.534;9.062;2023-02-28T04:34:00;97432.81;;;0.62;55.84
76611;BME280;65503;48.534;9.062;2023-02-28T04:36:26;97434.59;;;0.61;55.65
76611;BME280;65503;48.534;9.062;2023-02-28T04:38:54;97433.63;;;0.62;56.02
76611;BME280;65503;48.534;9.062;2023-02-28T04:41:21;97431.38;;;0.67;56.22
76611;BME280;65503;48.534;9.062;2023-02-28T04:43:47;97433.47;;;0.64;56.16
76611;BME280;65503;48.534;9.062;2023-02-28T04:46:14;97437.53;;;0.66;56.23
76611;BME280;65503;48.534;9.062;2023-02-28T04:48:41;97438.50;;;0.65;56.19
76611;BME280;65503;48.534;9.062;2023-02-28T04:51:12;97431.22;;;0.35;57.23
76611;BME280;65503;48.534;9.062;2023-02-28T04:53:40;97435.16;;;0.47;57.59
76611;BME280;65503;48.534;9.062;2023-02-28T04:56:08;97435.13;;;0.73;57.02
76611;BME280;65503;48.534;9.062;2023-02-28T04:58:36;97425.81;;;0.54;57.12
76611;BME280;65503;48.534;9.062;2023-02-28T05:01:05;97442.84;;;0.65;57.23
76611;BME280;65503;48.534;9.062;2023-02-28T05:03:39;97440.81;;;0.76;57.03
76611;BME280;65503;48.534;9.062;2023-02-28T05:06:09;97441.13;;;0.73;56.95
76611;BME280;65503;48.534;9.062;2023-02-28T05:08:37;97440.75;;;0.60;57.67
76611;BME280;65503;48.534;9.062;2023-02-28T05:11:05;97445.91;;;0.60;57.89
76611;BME280;65503;48.534;9.062;2023-02-28T05:13:32;97444.28;;;0.59;58.06
76611;BME280;65503;48.534;9.062;2023-02-28T05:15:58;97450.78;;;0.63;57.99
76611;BME280;65503;48.534;9.062;2023-02-28T05:18:25;97447.50;;;0.53;57.86
76611;BME280;65503;48.534;9.062;2023-02-28T05:20:51;97461.84;;;0.73;58.12
76611;BME280;65503;48.534;9.062;2023-02-28T05:23:19;97461.84;;;0.73;57.94
76611;BME280;65503;48.534;9.062;2023-02-28T05:25:47;97459.28;;;0.81;57.89
76611;BME280;65503;48.534;9.062;2023-02-28T05:28:14;97455.38;;;0.77;58.13
76611;BME280;65503;48.534;9.062;2023-02-28T05:30:40;97457.28;;;0.67;58.28
76611;BME280;65503;48.534;9.062;2023-02-28T05:33:10;97454.03;;;0.65;58.48
76611;BME280;65503;48.534;9.062;2023-02-28T05:35:38;97454.88;;;0.74;58.26
76611;BME280;65503;48.534;9.062;2023-02-28T05:38:05;97455.72;;;0.82;58.30
76611;BME280;65503;48.534;9.062;2023-02-28T05:40:32;97455.03;;;0.72;58.37
76611;BME280;65503;48.534;9.062;2023-02-28T05:42:59;97453.44;;;0.79;58.57
76611;BME280;65503;48.534;9.062;2023-02-28T05:45:25;97462.47;;;0.75;58.58
76611;BME280;65503;48.534;9.062;2023-02-28T05:47:55;97461.44;;;0.60;59.41
76611;BME280;65503;48.534;9.062;2023-02-28T05:50:22;97459.69;;;0.61;58.77
76611;BME280;65503;48.534;9.062;2023-02-28T05:52:50;97463.91;;;0.62;59.00
76611;BME280;65503;48.534;9.062;2023-02-28T05:55:16;97455.25;;;0.53;59.27
76611;BME280;65503;48.534;9.062;2023-02-28T05:57:43;97461.44;;;0.60;59.06
76611;BME280;65503;48.534;9.062;2023-02-28T06:00:10;97452.75;;;0.69;58.61
76611;BME280;65503;48.534;9.062;2023-02-28T06:02:38;97451.81;;;0.78;58.63
76611;BME280;65503;48.534;9.062;2023-02-28T06:05:12;97454.34;;;0.62;58.89
76611;BME280;65503;48.534;9.062;2023-02-28T06:07:39;97462.13;;;0.70;58.48
76611;BME280;65503;48.534;9.062;2023-02-28T06:10:06;97462.75;;;0.64;58.65
76611;BME280;65503;48.534;9.062;2023-02-28T06:12:33;97467.44;;;0.61;59.03
76611;BME280;65503;48.534;9.062;2023-02-28T06:15:00;97473.00;;;0.74;58.71
76611;BME280;65503;48.534;9.062;2023-02-28T06:17:26;97475.69;;;0.64;58.61
76611;BME280;65503;48.534;9.062;2023-02-28T06:19:53;97478.34;;;0.72;58.86
76611;BME280;65503;48.534;9.062;2023-02-28T06:22:19;97479.69;;;0.85;58.27
76611;BME280;65503;48.534;9.062;2023-02-28T06:24:46;97475.56;;;0.40;59.20
76611;BME280;65503;48.534;9.062;2023-02-28T06:27:12;97485.47;;;0.45;58.86
76611;BME280;65503;48.534;9.062;2023-02-28T06:29:39;97485.16;;;0.81;58.13
76611;BME280;65503;48.534;9.062;2023-02-28T06:32:06;97479.09;;;0.99;57.29
76611;BME280;65503;48.534;9.062;2023-02-28T06:34:32;97487.81;;;0.90;57.63
76611;BME280;65503;48.534;9.062;2023-02-28T06:37:00;97486.47;;;0.86;57.41
76611;BME280;65503;48.534;9.062;2023-02-28T06:39:29;97492.66;;;0.93;57.54
76611;BME280;65503;48.534;9.062;2023-02-28T06:41:56;97488.38;;;0.75;56.91
76611;BME280;65503;48.534;9.062;2023-02-28T06:44:24;97493.25;;;0.78;56.96
76611;BME280;65503;48.534;9.062;2023-02-28T06:46:50;97494.28;;;0.94;57.07
76611;BME280;65503;48.534;9.062;2023-02-28T06:49:17;97493.28;;;0.87;56.78
76611;BME280;65503;48.534;9.062;2023-02-28T06:51:44;97498.50;;;1.03;56.48
76611;BME280;65503;48.534;9.062;2023-02-28T06:54:11;97502.41;;;0.99;56.46
76611;BME280;65503;48.534;9.062;2023-02-28T06:56:38;97505.31;;;1.04;55.77
76611;BME280;65503;48.534;9.062;2023-02-28T06:59:05;97498.59;;;1.19;55.99
76611;BME280;65503;48.534;9.062;2023-02-28T07:01:32;97502.34;;;1.24;55.92
76611;BME280;65503;48.534;9.062;2023-02-28T07:03:59;97512.81;;;1.15;55.56
76611;BME280;65503;48.534;9.062;2023-02-28T07:06:26;97511.50;;;1.11;56.22
76611;BME280;65503;48.534;9.062;2023-02-28T07:08:53;97516.88;;;1.17;55.93
76611;BME280;65503;48.534;9.062;2023-02-28T07:11:22;97505.09;;;1.23;55.12
76611;BME280;65503;48.534;9.062;2023-02-28T07:13:49;97509.31;;;1.24;55.19
76611;BME280;65503;48.534;9.062;2023-02-28T07:16:17;97511.59;;;0.59;56.58
76611;BME280;65503;48.534;9.062;2023-02-28T07:18:44;97517.75;;;0.92;56.64
76611;BME280;65503;48.534;9.062;2023-02-28T07:21:10;97513.56;;;0.65;56.89
76611;BME280;65503;48.534;9.062;2023-02-28T07:23:38;97509.69;;;0.69;56.60
76611;BME280;65503;48.534;9.062;2023-02-28T07:26:06;97520.25;;;1.10;55.62
76611;BME280;65503;48.534;9.062;2023-02-28T07:28:33;97518.28;;;0.96;55.57
76611;BME280;65503;48.534;9.062;2023-02-28T07:31:04;97514.63;;;1.22;54.63
76611;BME280;65503;48.534;9.062;2023-02-28T07:33:31;97521.31;;;1.33;54.83
76611;BME280;65503;48.534;9.062;2023-02-28T07:36:09;97512.53;;;1.26;54.93
76611;BME280;65503;48.534;9.062;2023-02-28T07:38:41;97517.41;;;1.37;54.75
76611;BME280;65503;48.534;9.062;2023-02-28T07:41:08;97515.84;;;1.60;53.50
76611;BME280;65503;48.534;9.062;2023-02-28T07:43:34;97514.09;;;1.11;54.82
76611;BME280;65503;48.534;9.062;2023-02-28T07:46:12;97511.69;;;0.75;56.20
76611;BME280;65503;48.534;9.062;2023-02-28T07:48:41;97518.13;;;1.05;55.76
76611;BME280;65503;48.534;9.062;2023-02-28T07:51:08;97523.44;;;0.96;55.57
76611;BME280;65503;48.534;9.062;2023-02-28T07:53:35;97519.38;;;1.35;54.73
76611;BME280;65503;48.534;9.062;2023-02-28T07:56:02;97521.94;;;1.27;54.84
76611;BME280;65503;48.534;9.062;2023-02-28T07:58:30;97531.38;;;1.44;54.23
76611;BME280;65503;48.534;9.062;2023-02-28T08:00:57;97530.22;;;1.39;54.33
76611;BME280;65503;48.534;9.062;2023-02-28T08:03:24;97526.03;;;1.46;53.77
76611;BME280;65503;48.534;9.062;2023-02-28T08:05:51;97529.81;;;1.59;54.13
76611;BME280;65503;48.534;9.062;2023-02-28T08:08:18;97531.38;;;1.36;54.16
76611;BME280;65503;48.534;9.062;2023-02-28T08:10:45;97534.66;;;1.62;53.47
76611;BME280;65503;48.534;9.062;2023-02-28T08:13:11;97530.22;;;1.39;54.21
76611;BME280;65503;48.534;9.062;2023-02-28T08:15:40;97542.16;;;1.82;53.59
76611;BME280;65503;48.534;9.062;2023-02-28T08:18:07;97551.91;;;2.04;52.64
76611;BME280;65503;48.534;9.062;2023-02-28T08:20:37;97553.50;;;1.81;53.29
76611;BME280;65503;48.534;9.062;2023-02-28T08:23:03;97549.00;;;1.99;52.80
76611;BME280;65503;48.534;9.062;2023-02-28T08:25:30;97549.94;;;1.90;53.12
76611;BME280;65503;48.534;9.062;2023-02-28T08:27:56;97549.94;;;2.06;52.62
76611;BME280;65503;48.534;9.062;2023-02-28T08:30:23;97551.75;;;2.14;51.84
76611;BME280;65503;48.534;9.062;2023-02-28T08:32:49;97551.28;;;2.10;52.51
76611;BME280;65503;48.534;9.062;2023-02-28T08:35:16;97546.72;;;2.36;51.72
76611;BME280;65503;48.534;9.062;2023-02-28T08:37:42;97544.44;;;2.41;51.67
76611;BME280;65503;48.534;9.062;2023-02-28T08:40:09;97547.03;;;2.01;52.30
76611;BME280;65503;48.534;9.062;2023-02-28T08:42:36;97557.28;;;2.27;51.85
76611;BME280;65503;48.534;9.062;2023-02-28T08:45:03;97551.91;;;2.44;51.28
76611;BME280;65503;48.534;9.062;2023-02-28T08:47:30;97557.06;;;2.69;50.87
76611;BME280;65503;48.534;9.062;2023-02-28T08:49:56;97557.72;;;2.79;50.22
76611;BME280;65503;48.534;9.062;2023-02-28T08:52:23;97552.16;;;2.82;50.41
76611;BME280;65503;48.534;9.062;2023-02-28T08:54:49;97555.31;;;3.08;49.35
76611;BME280;65503;48.534;9.062;2023-02-28T08:57:16;97557.41;;;2.49;49.81
76611;BME280;65503;48.534;9.062;2023-02-28T08:59:42;97568.44;;;2.60;50.06
76611;BME280;65503;48.534;9.062;2023-02-28T09:02:12;97566.19;;;2.48;49.27
76611;BME280;65503;48.534;9.062;2023-02-28T09:04:39;97559.03;;;2.67;48.86
76611;BME280;65503;48.534;9.062;2023-02-28T09:07:05;97575.72;;;2.64;49.59
76611;BME280;65503;48.534;9.062;2023-02-28T09:09:32;97566.81;;;2.59;49.34
76611;BME280;65503;48.534;9.062;2023-02-28T09:11:58;97567.75;;;2.82;49.12
76611;BME280;65503;48.534;9.062;2023-02-28T09:14:25;97578.00;;;2.83;48.99
76611;BME280;65503;48.534;9.062;2023-02-28T09:16:51;97572.63;;;2.77;48.62
76611;BME280;65503;48.534;9.062;2023-02-28T09:19:18;97579.16;;;2.40;49.18
76611;BME280;65503;48.534;9.062;2023-02-28T09:21:44;97580.75;;;2.82;48.77
76611;BME280;65503;48.534;9.062;2023-02-28T09:24:11;97579.13;;;2.89;48.85
76611;BME280;65503;48.534;9.062;2023-02-28T09:26:40;97579.22;;;3.12;48.17
76611;BME280;65503;48.534;9.062;2023-02-28T09:29:16;97584.16;;;3.38;47.42
76611;BME280;65503;48.534;9.062;2023-02-28T09:31:43;97584.41;;;3.51;46.53
76611;BME280;65503;48.534;9.062;2023-02-28T09:34:10;97583.41;;;3.60;47.49
76611;BME280;65503;48.534;9.062;2023-02-28T09:36:37;97581.16;;;3.49;46.79
76611;BME280;65503;48.534;9.062;2023-02-28T09:39:12;97580.25;;;3.42;47.21
76611;BME280;65503;48.534;9.062;2023-02-28T09:41:45;97579.81;;;3.61;46.83
76611;BME280;65503;48.534;9.062;2023-02-28T09:44:37;97582.22;;;3.31;46.82
76611;BME280;65503;48.534;9.062;2023-02-28T09:47:32;97583.06;;;3.63;46.69
76611;BME280;65503;48.534;9.062;2023-02-28T09:50:40;97581.91;;;3.96;46.25
76611;BME280;65503;48.534;9.062;2023-02-28T09:53:32;97582.88;;;4.18;45.24
76611;BME280;65503;48.534;9.062;2023-02-28T09:56:21;97587.03;;;4.04;44.94
76611;BME280;65503;48.534;9.062;2023-02-28T10:02:04;97599.47;;;3.94;44.97
76611;BME280;65503;48.534;9.062;2023-02-28T10:04:54;97600.81;;;3.90;45.41
76611;BME280;65503;48.534;9.062;2023-02-28T10:12:45;97608.22;;;4.01;44.86
76611;BME280;65503;48.534;9.062;2023-02-28T10:15:15;97602.97;;;3.79;45.88
76611;BME280;65503;48.534;9.062;2023-02-28T10:17:45;97603.25;;;3.92;46.15
76611;BME280;65503;48.534;9.062;2023-02-28T10:20:35;97606.84;;;4.59;44.15
76611;BME280;65503;48.534;9.062;2023-02-28T10:23:11;97602.94;;;4.78;43.96
76611;BME280;65503;48.534;9.062;2023-02-28T10:25:39;97610.53;;;5.17;42.30
76611;BME280;65503;48.534;9.062;2023-02-28T10:28:14;97604.75;;;5.36;42.16
76611;BME280;65503;48.534;9.062;2023-02-28T10:30:45;97611.22;;;5.69;41.87
76611;BME280;65503;48.534;9.062;2023-02-28T10:33:24;97612.28;;;5.90;41.02
76611;BME280;65503;48.534;9.062;2023-02-28T10:35:52;97620.03;;;5.98;40.77
76611;BME280;65503;48.534;9.062;2023-02-28T10:38:33;97615.81;;;6.18;40.63
76611;BME280;65503;48.534;9.062;2023-02-28T10:41:09;97615.56;;;6.34;39.32
76611;BME280;65503;48.534;9.062;2023-02-28T10:43:37;97611.47;;;5.60;40.96
76611;BME280;65503;48.534;9.062;2023-02-28T10:48:43;97605.91;;;5.48;41.47
76611;BME280;65503;48.534;9.062;2023-02-28T10:51:16;97606.84;;;5.40;42.06
76611;BME280;65503;48.534;9.062;2023-02-28T10:53:49;97604.94;;;6.14;40.64
76611;BME280;65503;48.534;9.062;2023-02-28T10:56:27;97607.75;;;5.98;40.48
76611;BME280;65503;48.534;9.062;2023-02-28T10:59:02;97612.31;;;6.11;39.76
76611;BME280;65503;48.534;9.062;2023-02-28T11:03:57;97611.94;;;6.78;38.58
76611;BME280;65503;48.534;9.062;2023-02-28T11:06:32;97604.19;;;6.20;39.52
76611;BME280;65503;48.534;9.062;2023-02-28T11:09:04;97609.63;;;6.68;39.31
76611;BME280;65503;48.534;9.062;2023-02-28T11:11:43;97609.44;;;7.25;37.80
76611;BME280;65503;48.534;9.062;2023-02-28T11:14:20;97615.34;;;7.40;37.34
76611;BME280;65503;48.534;9.062;2023-02-28T11:16:49;97617.44;;;7.52;37.19
76611;BME280;65503;48.534;9.062;2023-02-28T11:19:20;97617.75;;;7.35;36.96
76611;BME280;65503;48.534;9.062;2023-02-28T11:21:54;97629.50;;;7.18;37.57
76611;BME280;65503;48.534;9.062;2023-02-28T11:24:26;97625.41;;;6.32;38.83
76611;BME280;65503;48.534;9.062;2023-02-28T11:26:54;97624.53;;;6.46;39.24
76611;BME280;65503;48.534;9.062;2023-02-28T11:29:27;97624.50;;;6.89;38.62
76611;BME280;65503;48.534;9.062;2023-02-28T11:34:40;97624.91;;;6.43;38.76
76611;BME280;65503;48.534;9.062;2023-02-28T11:37:13;97621.13;;;5.30;40.88
76611;BME280;65503;48.534;9.062;2023-02-28T11:39:41;97621.13;;;5.01;42.45
76611;BME280;65503;48.534;9.062;2023-02-28T11:48:16;97612.59;;;7.14;38.47
76611;BME280;65503;48.534;9.062;2023-02-28T11:50:55;97611.91;;;7.33;38.24
76611;BME280;65503;48.534;9.062;2023-02-28T11:56:33;97599.13;;;8.12;36.24
76611;BME280;65503;48.534;9.062;2023-02-28T11:59:34;97598.63;;;8.63;36.38
76611;BME280;65503;48.534;9.062;2023-02-28T12:02:23;97600.94;;;8.05;36.21
76611;BME280;65503;48.534;9.062;2023-02-28T12:05:10;97598.22;;;8.46;36.46
76611;BME280;65503;48.534;9.062;2023-02-28T12:08:09;97604.25;;;9.12;34.48
76611;BME280;65503;48.534;9.062;2023-02-28T12:11:06;97605.03;;;9.33;33.66
76611;BME280;65503;48.534;9.062;2023-02-28T12:13:42;97596.81;;;8.50;35.82
76611;BME280;65503;48.534;9.062;2023-02-28T12:19:32;97585.63;;;8.15;35.95
76611;BME280;65503;48.534;9.062;2023-02-28T12:22:15;97586.31;;;8.63;35.77
76611;BME280;65503;48.534;9.062;2023-02-28T12:25:02;97595.41;;;8.48;35.49
76611;BME280;65503;48.534;9.062;2023-02-28T12:27:34;97590.91;;;8.28;36.11
76611;BME280;65503;48.534;9.062;2023-02-28T12:30:08;97588.72;;;8.39;35.85
76611;BME280;65503;48.534;9.062;2023-02-28T12:32:43;97592.38;;;7.77;36.76
76611;BME280;65503;48.534;9.062;2023-02-28T12:35:21;97591.19;;;7.04;38.08
76611;BME280;65503;48.534;9.062;2023-02-28T12:37:55;97584.53;;;6.74;38.51
76611;BME280;65503;48.534;9.062;2023-02-28T12:40:26;97575.84;;;7.01;38.88
76611;BME280;65503;48.534;9.062;2023-02-28T12:42:59;97577.19;;;7.18;38.50
76611;BME280;65503;48.534;9.062;2023-02-28T12:45:42;97566.94;;;7.71;37.66
76611;BME280;65503;48.534;9.062;2023-02-28T12:48:15;97571.50;;;8.16;37.89
76611;BME280;65503;48.534;9.062;2023-02-28T12:50:47;97562.72;;;8.63;36.08
76611;BME280;65503;48.534;9.062;2023-02-28T12:58:39;97557.88;;;11.08;31.73
76611;BME280;65503;48.534;9.062;2023-02-28T13:06:43;97557.38;;;12.97;28.15
76611;BME280;65503;48.534;9.062;2023-02-28T13:09:12;97553.81;;;12.91;27.71
76611;BME280;65503;48.534;9.062;2023-02-28T13:11:48;97550.56;;;10.92;30.74
76611;BME280;65503;48.534;9.062;2023-02-28T13:14:20;97559.16;;;9.86;32.54
76611;BME280;65503;48.534;9.062;2023-02-28T13:19:39;97549.00;;;9.45;34.12
76611;BME280;65503;48.534;9.062;2023-02-28T13:22:17;97546.38;;;8.42;35.81
76611;BME280;65503;48.534;9.062;2023-02-28T13:24:49;97550.53;;;8.16;36.21
76611;BME280;65503;48.534;9.062;2023-02-28T13:29:52;97545.94;;;7.51;37.44
76611;BME280;65503;48.534;9.062;2023-02-28T13:32:28;97546.69;;;7.38;38.30
76611;BME280;65503;48.534;9.062;2023-02-28T13:40:22;97540.84;;;8.10;37.40
76611;BME280;65503;48.534;9.062;2023-02-28T13:42:52;97543.59;;;7.22;38.67
76611;BME280;65503;48.534;9.062;2023-02-28T13:45:29;97543.56;;;7.15;39.09
76611;BME280;65503;48.534;9.062;2023-02-28T13:48:18;97543.06;;;7.39;39.16
76611;BME280;65503;48.534;9.062;2023-02-28T13:50:45;97544.34;;;7.57;38.87
76611;BME280;65503;48.534;9.062;2023-02-28T13:58:59;97539.03;;;6.68;40.26
76611;BME280;65503;48.534;9.062;2023-02-28T14:06:37;97545.56;;;6.30;41.30
76611;BME280;65503;48.534;9.062;2023-02-28T14:11:40;97540.59;;;6.62;40.84
76611;BME280;65503;48.534;9.062;2023-02-28T14:14:08;97541.97;;;6.86;40.80
76611;BME280;65503;48.534;9.062;2023-02-28T14:16:46;97538.63;;;6.99;40.44
76611;BME280;65503;48.534;9.062;2023-02-28T14:19:29;97534.41;;;6.98;40.28
76611;BME280;65503;48.534;9.062;2023-02-28T14:27:37;97530.84;;;7.12;40.43
76611;BME280;65503;48.534;9.062;2023-02-28T14:30:29;97536.78;;;6.93;40.28
76611;BME280;65503;48.534;9.062;2023-02-28T14:33:19;97529.56;;;7.01;39.91
76611;BME280;65503;48.534;9.062;2023-02-28T14:36:17;97531.34;;;7.35;39.60
76611;BME280;65503;48.534;9.062;2023-02-28T14:38:59;97538.34;;;7.63;39.37
76611;BME280;65503;48.534;9.062;2023-02-28T14:41:33;97536.34;;;7.78;38.82
76611;BME280;65503;48.534;9.062;2023-02-28T14:44:14;97539.63;;;7.32;39.40
76611;BME280;65503;48.534;9.062;2023-02-28T14:46:43;97535.31;;;7.18;39.64
76611;BME280;65503;48.534;9.062;2023-02-28T14:49:21;97533.38;;;7.33;39.72
76611;BME280;65503;48.534;9.062;2023-02-28T14:51:50;97532.44;;;7.54;38.95
76611;BME280;65503;48.534;9.062;2023-02-28T14:54:28;97530.97;;;7.38;39.25
76611;BME280;65503;48.534;9.062;2023-02-28T14:56:54;97534.81;;;7.42;39.33
76611;BME280;65503;48.534;9.062;2023-02-28T14:59:28;97534.69;;;7.64;39.17
76611;BME280;65503;48.534;9.062;2023-02-28T15:02:15;97531.03;;;7.52;38.82
76611;BME280;65503;48.534;9.062;2023-02-28T15:04:42;97539.13;;;7.70;38.91
76611;BME280;65503;48.534;9.062;2023-02-28T15:07:10;97541.19;;;7.81;38.73
76611;BME280;65503;48.534;9.062;2023-02-28T15:09:37;97540.81;;;7.91;38.28
76611;BME280;65503;48.534;9.062;2023-02-28T15:12:03;97536.34;;;7.78;38.52
76611;BME280;65503;48.534;9.062;2023-02-28T15:14:31;97538.72;;;7.60;38.91
76611;BME280;65503;48.534;9.062;2023-02-28T15:17:02;97542.28;;;7.45;39.01